Time,TemperatureF,DewpointF,PressureIn,WindDirection,WindDirectionDegrees,WindSpeedMPH,WindSpeedGustMPH,Humidity,HourlyPrecipIn,Conditions,Clouds,dailyrainin,SoftwareType,DateUTC
2013-08-01 07:53:00,61.1,56.9,30.00,East,96,1.0,3.0,86,0.00,,,0.00,VWS V12.08,2013-08-01 12:53:00,
2013-08-01 07:55:00,61.3,56.8,30.00,SE,130,0.0,3.0,85,0.00,,,0.00,VWS V12.08,2013-08-01 12:55:00,
2013-08-01 07:56:00,61.5,57.0,30.00,ESE,123,1.0,3.0,85,0.00,,,0.00,VWS V12.08,2013-08-01 12:56:00,
2013-08-01 08:02:00,62.3,57.4,30.00,ESE,117,0.0,1.0,84,0.00,,,0.00,VWS V12.08,2013-08-01 13:02:00,
2013-08-01 08:07:00,62.8,57.6,30.00,SSE,161,2.0,4.0,83,0.00,,,0.00,VWS V12.08,2013-08-01 13:07:00,
2013-08-01 08:12:00,62.9,58.0,30.00,SSE,151,1.0,4.0,84,0.00,,,0.00,VWS V12.08,2013-08-01 13:12:00,
2013-08-01 08:18:00,63.3,58.4,30.00,South,173,0.0,4.0,84,0.00,,,0.00,VWS V12.08,2013-08-01 13:18:00,
2013-08-01 08:23:00,64.0,59.1,30.01,SSE,147,0.0,4.0,84,0.00,,,0.00,VWS V12.08,2013-08-01 13:23:00,
2013-08-01 08:29:00,64.4,59.1,30.01,SE,146,2.0,4.0,83,0.00,,,0.00,VWS V12.08,2013-08-01 13:29:00,
2013-08-01 08:34:00,64.7,59.8,30.01,SW,222,0.0,3.0,84,0.00,,,0.00,VWS V12.08,2013-08-01 13:34:00,
2013-08-01 08:40:00,65.0,59.7,30.01,SSE,150,2.0,5.0,83,0.00,,,0.00,VWS V12.08,2013-08-01 13:40:00,
2013-08-01 08:46:00,65.2,60.2,30.00,SSW,198,4.0,5.0,84,0.00,,,0.00,VWS V12.08,2013-08-01 13:46:00,
2013-08-01 08:51:00,65.7,60.7,30.00,SSE,159,3.0,6.0,84,0.00,,,0.00,VWS V12.08,2013-08-01 13:51:00,
2013-08-01 08:56:00,66.2,60.9,30.00,SSE,153,3.0,6.0,83,0.00,,,0.00,VWS V12.08,2013-08-01 13:56:00,
2013-08-01 09:02:00,66.8,61.5,30.00,SSW,205,2.0,3.0,83,0.00,,,0.00,VWS V12.08,2013-08-01 14:02:00,
2013-08-01 09:08:00,67.4,62.1,30.00,SSW,207,2.0,6.0,83,0.00,,,0.00,VWS V12.08,2013-08-01 14:08:00,
2013-08-01 09:13:00,68.2,62.2,29.99,SE,146,1.0,6.0,81,0.00,,,0.00,VWS V12.08,2013-08-01 14:13:00,
2013-08-01 09:18:00,68.7,62.3,29.99,SSW,192,0.0,6.0,80,0.00,,,0.00,VWS V12.08,2013-08-01 14:18:00,
2013-08-01 09:23:00,69.5,62.3,29.99,SSW,195,2.0,7.0,78,0.00,,,0.00,VWS V12.08,2013-08-01 14:23:00,
2013-08-01 09:29:00,69.7,62.2,29.99,South,178,2.0,7.0,77,0.00,,,0.00,VWS V12.08,2013-08-01 14:29:00,
2013-08-01 09:34:00,70.0,62.5,29.99,SSE,152,3.0,6.0,77,0.00,,,0.00,VWS V12.08,2013-08-01 14:34:00,
2013-08-01 09:39:00,70.5,62.6,29.99,South,169,3.0,6.0,76,0.00,,,0.00,VWS V12.08,2013-08-01 14:39:00,
2013-08-01 09:45:00,70.9,62.6,29.99,SSW,199,5.0,6.0,75,0.00,,,0.00,VWS V12.08,2013-08-01 14:45:00,
2013-08-01 09:52:00,71.3,63.3,29.99,SW,217,5.0,6.0,76,0.00,,,0.00,VWS V12.08,2013-08-01 14:52:00,
2013-08-01 09:57:00,72.0,63.7,29.99,WSW,240,4.0,8.0,75,0.00,,,0.00,VWS V12.08,2013-08-01 14:57:00,
2013-08-01 10:02:00,72.6,63.8,29.99,SSW,198,4.0,5.0,74,0.00,,,0.00,VWS V12.08,2013-08-01 15:02:00,
2013-08-01 10:07:00,73.2,64.0,29.98,South,188,2.0,6.0,73,0.00,,,0.00,VWS V12.08,2013-08-01 15:07:00,
2013-08-01 10:12:00,73.5,64.3,29.98,South,182,4.0,6.0,73,0.00,,,0.00,VWS V12.08,2013-08-01 15:12:00,
2013-08-01 10:18:00,73.5,64.3,29.98,SSW,211,4.0,8.0,73,0.00,,,0.00,VWS V12.08,2013-08-01 15:18:00,
2013-08-01 10:23:00,74.3,65.1,29.98,SSE,160,4.0,8.0,73,0.00,,,0.00,VWS V12.08,2013-08-01 15:23:00,
2013-08-01 10:28:00,74.6,64.6,29.98,WSW,241,2.0,8.0,71,0.00,,,0.00,VWS V12.08,2013-08-01 15:28:00,
2013-08-01 10:33:00,74.9,64.9,29.98,South,175,4.0,8.0,71,0.00,,,0.00,VWS V12.08,2013-08-01 15:33:00,
2013-08-01 10:39:00,75.1,64.7,29.98,WNW,282,4.0,8.0,70,0.00,,,0.00,VWS V12.08,2013-08-01 15:39:00,
2013-08-01 10:44:00,75.8,64.9,29.97,SSW,200,3.0,8.0,69,0.00,,,0.00,VWS V12.08,2013-08-01 15:44:00,
2013-08-01 10:49:00,76.1,65.2,29.97,WSW,257,6.0,10.0,69,0.00,,,0.00,VWS V12.08,2013-08-01 15:49:00,
2013-08-01 10:54:00,75.9,64.6,29.97,WSW,237,6.0,12.0,68,0.00,,,0.00,VWS V12.08,2013-08-01 15:54:00,
2013-08-01 11:00:00,75.8,65.3,29.97,WSW,257,4.0,12.0,70,0.00,,,0.00,VWS V12.08,2013-08-01 16:00:00,
2013-08-01 11:06:00,76.3,65.0,29.97,WSW,246,9.0,12.0,68,0.00,,,0.00,VWS V12.08,2013-08-01 16:06:00,
2013-08-01 11:12:00,77.0,64.8,29.97,WSW,253,5.0,12.0,66,0.00,,,0.00,VWS V12.08,2013-08-01 16:12:00,
2013-08-01 11:17:00,76.8,65.4,29.97,West,260,3.0,12.0,68,0.00,,,0.00,VWS V12.08,2013-08-01 16:17:00,
2013-08-01 11:22:00,77.4,65.6,29.97,West,281,5.0,12.0,67,0.00,,,0.00,VWS V12.08,2013-08-01 16:22:00,
2013-08-01 11:27:00,77.7,65.4,29.97,WNW,296,7.0,12.0,66,0.00,,,0.00,VWS V12.08,2013-08-01 16:27:00,
2013-08-01 11:33:00,78.1,66.3,29.97,SSW,209,3.0,13.0,67,0.00,,,0.00,VWS V12.08,2013-08-01 16:33:00,
2013-08-01 11:39:00,78.6,65.9,29.96,West,275,2.0,13.0,65,0.00,,,0.00,VWS V12.08,2013-08-01 16:39:00,
2013-08-01 11:44:00,78.4,66.1,29.96,WSW,252,4.0,13.0,66,0.00,,,0.00,VWS V12.08,2013-08-01 16:44:00,
2013-08-01 11:50:00,79.0,66.2,29.96,WSW,257,7.0,13.0,65,0.00,,,0.00,VWS V12.08,2013-08-01 16:50:00,
2013-08-01 11:55:00,79.2,66.4,29.95,West,273,2.0,13.0,65,0.00,,,0.00,VWS V12.08,2013-08-01 16:55:00,
2013-08-01 12:01:00,79.5,66.3,29.95,SW,221,3.0,13.0,64,0.00,,,0.00,VWS V12.08,2013-08-01 17:01:00,
2013-08-01 12:06:00,79.8,66.1,29.95,West,264,5.0,8.0,63,0.00,,,0.00,VWS V12.08,2013-08-01 17:06:00,
2013-08-01 12:12:00,79.9,66.2,29.95,West,272,6.0,12.0,63,0.00,,,0.00,VWS V12.08,2013-08-01 17:12:00,
2013-08-01 12:17:00,80.1,66.4,29.95,WSW,240,6.0,12.0,63,0.00,,,0.00,VWS V12.08,2013-08-01 17:17:00,
2013-08-01 12:22:00,80.1,65.9,29.95,West,272,11.0,12.0,62,0.00,,,0.00,VWS V12.08,2013-08-01 17:22:00,
2013-08-01 12:28:00,80.3,66.1,29.95,West,280,6.0,12.0,62,0.00,,,0.00,VWS V12.08,2013-08-01 17:28:00,
2013-08-01 12:34:00,80.2,66.5,29.95,SW,229,8.0,10.0,63,0.00,,,0.00,VWS V12.08,2013-08-01 17:34:00,
2013-08-01 12:39:00,80.7,66.5,29.95,WSW,245,8.0,14.0,62,0.00,,,0.00,VWS V12.08,2013-08-01 17:39:00,
2013-08-01 12:44:00,81.2,66.9,29.95,WSW,256,7.0,14.0,62,0.00,,,0.00,VWS V12.08,2013-08-01 17:44:00,
2013-08-01 12:49:00,81.4,66.7,29.94,West,272,11.0,14.0,61,0.00,,,0.00,VWS V12.08,2013-08-01 17:49:00,
2013-08-01 12:55:00,81.4,66.2,29.94,WSW,252,11.0,14.0,60,0.00,,,0.00,VWS V12.08,2013-08-01 17:55:00,
2013-08-01 13:00:00,81.4,66.2,29.94,WSW,252,5.0,14.0,60,0.00,,,0.00,VWS V12.08,2013-08-01 18:00:00,
2013-08-01 13:06:00,81.7,64.5,29.93,West,277,10.0,13.0,56,0.00,,,0.00,VWS V12.08,2013-08-01 18:06:00,
2013-08-01 13:12:00,82.1,63.8,29.93,WNW,303,9.0,16.0,54,0.00,,,0.00,VWS V12.08,2013-08-01 18:12:00,
2013-08-01 13:17:00,81.9,63.6,29.93,WNW,293,8.0,16.0,54,0.00,,,0.00,VWS V12.08,2013-08-01 18:17:00,
2013-08-01 13:22:00,82.4,64.1,29.93,West,271,4.0,16.0,54,0.00,,,0.00,VWS V12.08,2013-08-01 18:22:00,
2013-08-01 13:28:00,82.8,63.4,29.93,WSW,256,12.0,16.0,52,0.00,,,0.00,VWS V12.08,2013-08-01 18:28:00,
2013-08-01 13:33:00,82.7,63.8,29.93,WNW,283,7.0,14.0,53,0.00,,,0.00,VWS V12.08,2013-08-01 18:33:00,
2013-08-01 13:38:00,82.3,62.9,29.93,WNW,296,13.0,17.0,52,0.00,,,0.00,VWS V12.08,2013-08-01 18:38:00,
2013-08-01 13:43:00,82.4,62.5,29.92,West,272,11.0,17.0,51,0.00,,,0.00,VWS V12.08,2013-08-01 18:43:00,
2013-08-01 13:50:00,82.4,61.9,29.92,SSW,206,3.0,17.0,50,0.00,,,0.00,VWS V12.08,2013-08-01 18:50:00,
2013-08-01 13:55:00,82.4,62.5,29.92,West,263,6.0,17.0,51,0.00,,,0.00,VWS V12.08,2013-08-01 18:55:00,
2013-08-01 14:00:00,82.3,62.9,29.92,West,275,12.0,17.0,52,0.00,,,0.00,VWS V12.08,2013-08-01 19:00:00,
2013-08-01 14:06:00,82.0,62.1,29.92,West,265,9.0,15.0,51,0.00,,,0.00,VWS V12.08,2013-08-01 19:06:00,
2013-08-01 14:11:00,82.0,63.2,29.91,West,277,12.0,15.0,53,0.00,,,0.00,VWS V12.08,2013-08-01 19:11:00,
2013-08-01 14:17:00,82.1,63.8,29.91,WNW,288,7.0,15.0,54,0.00,,,0.00,VWS V12.08,2013-08-01 19:17:00,
2013-08-01 14:22:00,82.6,63.2,29.91,SW,218,9.0,15.0,52,0.00,,,0.00,VWS V12.08,2013-08-01 19:22:00,
2013-08-01 14:28:00,82.9,63.5,29.90,West,268,6.0,15.0,52,0.00,,,0.00,VWS V12.08,2013-08-01 19:28:00,
2013-08-01 14:33:00,82.8,63.4,29.90,WNW,286,6.0,11.0,52,0.00,,,0.00,VWS V12.08,2013-08-01 19:33:00,
2013-08-01 14:38:00,83.0,63.0,29.90,West,271,7.0,12.0,51,0.00,,,0.00,VWS V12.08,2013-08-01 19:38:00,
2013-08-01 14:43:00,83.1,63.1,29.89,West,272,3.0,12.0,51,0.00,,,0.00,VWS V12.08,2013-08-01 19:43:00,
2013-08-01 14:49:00,83.3,60.4,29.89,NW,309,7.0,13.0,46,0.00,,,0.00,VWS V12.08,2013-08-01 19:49:00,
2013-08-01 14:54:00,83.1,63.1,29.89,WNW,288,9.0,13.0,51,0.00,,,0.00,VWS V12.08,2013-08-01 19:54:00,
2013-08-01 14:59:00,83.3,62.7,29.89,NNW,340,5.0,14.0,50,0.00,,,0.00,VWS V12.08,2013-08-01 19:59:00,
2013-08-01 15:05:00,83.2,60.9,29.89,NW,309,7.0,15.0,47,0.00,,,0.00,VWS V12.08,2013-08-01 20:05:00,
2013-08-01 15:10:00,83.6,62.4,29.89,West,279,7.0,15.0,49,0.00,,,0.00,VWS V12.08,2013-08-01 20:10:00,
2013-08-01 15:15:00,83.1,60.8,29.89,WNW,294,5.0,15.0,47,0.00,,,0.00,VWS V12.08,2013-08-01 20:15:00,
2013-08-01 15:20:00,83.2,61.5,29.89,WNW,292,11.0,15.0,48,0.00,,,0.00,VWS V12.08,2013-08-01 20:20:00,
2013-08-01 15:25:00,83.4,62.3,29.89,West,277,6.0,15.0,49,0.00,,,0.00,VWS V12.08,2013-08-01 20:25:00,
2013-08-01 15:30:00,83.4,62.3,29.88,WNW,303,7.0,15.0,49,0.00,,,0.00,VWS V12.08,2013-08-01 20:30:00,
2013-08-01 15:35:00,83.3,61.6,29.88,West,279,4.0,12.0,48,0.00,,,0.00,VWS V12.08,2013-08-01 20:35:00,
2013-08-01 15:41:00,83.4,62.8,29.88,WNW,296,10.0,15.0,50,0.00,,,0.00,VWS V12.08,2013-08-01 20:41:00,
2013-08-01 15:46:00,83.8,62.0,29.88,West,279,5.0,15.0,48,0.00,,,0.00,VWS V12.08,2013-08-01 20:46:00,
2013-08-01 15:52:00,83.7,62.5,29.88,NNW,327,3.0,15.0,49,0.00,,,0.00,VWS V12.08,2013-08-01 20:52:00,
2013-08-01 15:57:00,84.0,62.2,29.88,NW,306,2.0,15.0,48,0.00,,,0.00,VWS V12.08,2013-08-01 20:57:00,
2013-08-01 16:02:00,84.2,62.4,29.89,WSW,257,9.0,12.0,48,0.00,,,0.00,VWS V12.08,2013-08-01 21:02:00,
2013-08-01 16:08:00,84.2,62.4,29.89,WNW,303,5.0,14.0,48,0.00,,,0.00,VWS V12.08,2013-08-01 21:08:00,
2013-08-01 16:13:00,84.3,63.1,29.89,NNE,20,6.0,14.0,49,0.00,,,0.00,VWS V12.08,2013-08-01 21:13:00,
2013-08-01 16:18:00,84.3,62.5,29.89,West,272,4.0,14.0,48,0.00,,,0.00,VWS V12.08,2013-08-01 21:18:00,
2013-08-01 16:23:00,84.3,62.5,29.88,WNW,286,12.0,14.0,48,0.00,,,0.00,VWS V12.08,2013-08-01 21:23:00,
2013-08-01 16:28:00,84.2,63.0,29.88,WNW,298,3.0,14.0,49,0.00,,,0.00,VWS V12.08,2013-08-01 21:28:00,
2013-08-01 16:33:00,84.4,63.2,29.88,West,267,5.0,8.0,49,0.00,,,0.00,VWS V12.08,2013-08-01 21:33:00,
2013-08-01 16:38:00,84.6,62.2,29.88,WSW,250,6.0,8.0,47,0.00,,,0.00,VWS V12.08,2013-08-01 21:38:00,
2013-08-01 16:43:00,84.3,61.9,29.88,NW,310,5.0,9.0,47,0.00,,,0.00,VWS V12.08,2013-08-01 21:43:00,
2013-08-01 16:49:00,84.1,61.7,29.88,West,281,4.0,9.0,47,0.00,,,0.00,VWS V12.08,2013-08-01 21:49:00,
2013-08-01 16:54:00,84.2,61.8,29.87,WNW,298,3.0,9.0,47,0.00,,,0.00,VWS V12.08,2013-08-01 21:54:00,
2013-08-01 16:59:00,84.4,61.4,29.87,NNW,344,4.0,10.0,46,0.00,,,0.00,VWS V12.08,2013-08-01 21:59:00,
2013-08-01 17:04:00,84.5,61.5,29.86,NNW,332,6.0,6.0,46,0.00,,,0.00,VWS V12.08,2013-08-01 22:04:00,
2013-08-01 17:09:00,84.1,61.1,29.86,WNW,300,3.0,11.0,46,0.00,,,0.00,VWS V12.08,2013-08-01 22:09:00,
2013-08-01 17:14:00,83.6,61.3,29.86,WNW,290,1.0,11.0,47,0.00,,,0.00,VWS V12.08,2013-08-01 22:14:00,
2013-08-01 17:19:00,83.2,61.5,29.86,West,261,1.0,11.0,48,0.00,,,0.00,VWS V12.08,2013-08-01 22:19:00,
2013-08-01 17:24:00,82.9,61.2,29.86,WNW,286,6.0,11.0,48,0.00,,,0.00,VWS V12.08,2013-08-01 22:24:00,
2013-08-01 17:29:00,82.5,62.0,29.86,West,281,3.0,11.0,50,0.00,,,0.00,VWS V12.08,2013-08-01 22:29:00,
2013-08-01 17:35:00,82.5,62.0,29.88,SW,218,12.0,15.0,50,0.00,,,0.00,VWS V12.08,2013-08-01 22:35:00,
2013-08-01 17:40:00,79.5,62.5,29.87,West,259,12.0,21.0,56,0.00,,,0.00,VWS V12.08,2013-08-01 22:40:00,
2013-08-01 17:46:00,77.2,62.7,29.87,WSW,244,7.0,21.0,61,0.00,,,0.00,VWS V12.08,2013-08-01 22:46:00,
2013-08-01 17:51:00,77.2,62.7,29.87,WSW,240,12.0,21.0,61,0.00,,,0.00,VWS V12.08,2013-08-01 22:51:00,
2013-08-01 17:56:00,77.0,63.0,29.86,WSW,252,5.0,21.0,62,0.00,,,0.00,VWS V12.08,2013-08-01 22:56:00,
2013-08-01 18:01:00,76.9,62.9,29.86,SW,226,10.0,10.0,62,0.00,,,0.00,VWS V12.08,2013-08-01 23:01:00,
2013-08-01 18:06:00,76.6,63.1,29.86,SW,223,4.0,11.0,63,0.00,,,0.00,VWS V12.08,2013-08-01 23:06:00,
2013-08-01 18:11:00,76.6,63.1,29.86,SW,217,3.0,11.0,63,0.00,,,0.00,VWS V12.08,2013-08-01 23:11:00,
2013-08-01 18:16:00,77.0,63.5,29.86,SW,214,5.0,11.0,63,0.00,,,0.00,VWS V12.08,2013-08-01 23:16:00,
2013-08-01 18:21:00,76.9,63.4,29.86,South,190,5.0,11.0,63,0.00,,,0.00,VWS V12.08,2013-08-01 23:21:00,
2013-08-01 18:26:00,77.2,64.1,29.86,South,188,2.0,11.0,64,0.00,,,0.00,VWS V12.08,2013-08-01 23:26:00,
2013-08-01 18:32:00,77.5,64.4,29.86,South,171,4.0,4.0,64,0.00,,,0.00,VWS V12.08,2013-08-01 23:32:00,
2013-08-01 18:37:00,77.6,64.9,29.86,SSW,205,5.0,7.0,65,0.00,,,0.00,VWS V12.08,2013-08-01 23:37:00,
2013-08-01 18:42:00,77.5,65.3,29.86,SSW,210,4.0,10.0,66,0.00,,,0.00,VWS V12.08,2013-08-01 23:42:00,
2013-08-01 18:47:00,77.7,65.4,29.86,SSE,154,2.0,10.0,66,0.00,,,0.00,VWS V12.08,2013-08-01 23:47:00,
2013-08-01 18:52:00,77.8,65.5,29.86,SSW,195,3.0,10.0,66,0.00,,,0.00,VWS V12.08,2013-08-01 23:52:00,
2013-08-01 18:57:00,77.6,65.8,29.86,SSW,206,7.0,10.0,67,0.00,,,0.00,VWS V12.08,2013-08-01 23:57:00,
2013-08-01 19:02:00,77.4,66.0,29.86,SE,133,5.0,7.0,68,0.00,,,0.00,VWS V12.08,2013-08-02 00:02:00,
2013-08-01 19:07:00,77.2,66.2,29.86,SSW,200,5.0,7.0,69,0.00,,,0.00,VWS V12.08,2013-08-02 00:07:00,
2013-08-01 19:13:00,77.2,66.2,29.86,SSW,203,4.0,7.0,69,0.00,,,0.00,VWS V12.08,2013-08-02 00:13:00,
2013-08-01 19:18:00,77.2,66.7,29.86,SW,234,6.0,7.0,70,0.00,,,0.00,VWS V12.08,2013-08-02 00:18:00,
2013-08-01 19:23:00,76.9,66.8,29.86,SSW,198,3.0,9.0,71,0.00,,,0.00,VWS V12.08,2013-08-02 00:23:00,
2013-08-01 19:28:00,77.1,67.0,29.85,SSW,206,3.0,9.0,71,0.00,,,0.00,VWS V12.08,2013-08-02 00:28:00,
2013-08-01 19:34:00,77.4,66.9,29.85,SW,221,4.0,8.0,70,0.00,,,0.00,VWS V12.08,2013-08-02 00:34:00,
2013-08-01 19:39:00,77.5,66.9,29.85,West,265,4.0,9.0,70,0.00,,,0.00,VWS V12.08,2013-08-02 00:39:00,
2013-08-01 19:44:00,77.0,66.9,29.85,WSW,246,4.0,9.0,71,0.00,,,0.00,VWS V12.08,2013-08-02 00:44:00,
2013-08-01 19:50:00,76.8,67.1,29.84,WSW,237,2.0,9.0,72,0.00,,,0.00,VWS V12.08,2013-08-02 00:50:00,
2013-08-01 19:55:00,76.8,67.1,29.84,WSW,237,4.0,9.0,72,0.00,,,0.00,VWS V12.08,2013-08-02 00:55:00,
2013-08-01 20:00:00,76.7,67.0,29.83,SW,230,3.0,9.0,72,0.00,,,0.00,VWS V12.08,2013-08-02 01:00:00,
2013-08-01 20:04:00,76.5,66.8,29.83,WSW,237,4.0,7.0,72,0.00,,,0.00,VWS V12.08,2013-08-02 01:04:00,
2013-08-01 20:10:00,76.4,66.7,29.83,WSW,240,3.0,7.0,72,0.00,,,0.00,VWS V12.08,2013-08-02 01:10:00,
2013-08-01 20:15:00,76.3,66.6,29.83,SW,230,4.0,7.0,72,0.00,,,0.00,VWS V12.08,2013-08-02 01:15:00,
2013-08-01 20:20:00,76.0,66.3,29.82,WSW,240,3.0,7.0,72,0.00,,,0.00,VWS V12.08,2013-08-02 01:20:00,
2013-08-01 20:25:00,75.8,66.5,29.82,WSW,256,2.0,7.0,73,0.00,,,0.00,VWS V12.08,2013-08-02 01:25:00,
2013-08-01 20:30:00,75.3,66.4,29.83,WSW,244,3.0,7.0,74,0.00,,,0.00,VWS V12.08,2013-08-02 01:30:00,
2013-08-01 20:36:00,75.0,66.2,29.83,WSW,244,3.0,4.0,74,0.00,,,0.00,VWS V12.08,2013-08-02 01:36:00,
2013-08-01 20:41:00,74.8,66.0,29.83,West,261,1.0,4.0,74,0.00,,,0.00,VWS V12.08,2013-08-02 01:41:00,
2013-08-01 20:47:00,74.7,66.3,29.83,SSW,210,0.0,4.0,75,0.00,,,0.00,VWS V12.08,2013-08-02 01:47:00,
2013-08-01 20:52:00,74.5,66.1,29.83,West,264,1.0,4.0,75,0.00,,,0.00,VWS V12.08,2013-08-02 01:52:00,
2013-08-01 20:57:00,74.3,65.9,29.84,SW,229,2.0,4.0,75,0.00,,,0.00,VWS V12.08,2013-08-02 01:57:00,
2013-08-01 21:02:00,74.0,66.0,29.84,WSW,242,0.0,0.0,76,0.00,,,0.00,VWS V12.08,2013-08-02 02:02:00,
2013-08-01 21:07:00,73.8,66.2,29.84,NNE,19,3.0,3.0,77,0.00,,,0.00,VWS V12.08,2013-08-02 02:07:00,
2013-08-01 21:12:00,73.4,66.1,29.84,NNE,21,3.0,6.0,78,0.00,,,0.00,VWS V12.08,2013-08-02 02:12:00,
2013-08-01 21:17:00,73.3,66.4,29.85,NNE,23,0.0,6.0,79,0.00,,,0.00,VWS V12.08,2013-08-02 02:17:00,
2013-08-01 21:23:00,73.3,66.0,29.85,NNE,20,0.0,6.0,78,0.00,,,0.00,VWS V12.08,2013-08-02 02:23:00,
2013-08-01 21:28:00,73.3,66.0,29.85,NNW,341,0.0,6.0,78,0.00,,,0.00,VWS V12.08,2013-08-02 02:28:00,
2013-08-01 21:33:00,73.4,66.1,29.85,West,271,0.0,0.0,78,0.00,,,0.00,VWS V12.08,2013-08-02 02:33:00,
2013-08-01 21:38:00,73.2,66.3,29.85,SW,226,3.0,3.0,79,0.00,,,0.00,VWS V12.08,2013-08-02 02:38:00,
2013-08-01 21:43:00,72.6,66.1,29.85,WSW,256,0.0,4.0,80,0.00,,,0.00,VWS V12.08,2013-08-02 02:43:00,
2013-08-01 21:48:00,72.4,65.9,29.85,WSW,256,0.0,4.0,80,0.00,,,0.00,VWS V12.08,2013-08-02 02:48:00,
2013-08-01 21:53:00,72.4,65.9,29.85,WSW,246,0.0,4.0,80,0.00,,,0.00,VWS V12.08,2013-08-02 02:53:00,
2013-08-01 21:58:00,72.3,65.8,29.85,SW,230,2.0,4.0,80,0.00,,,0.00,VWS V12.08,2013-08-02 02:58:00,
2013-08-01 22:03:00,72.1,65.6,29.86,WSW,246,0.0,3.0,80,0.00,,,0.00,VWS V12.08,2013-08-02 03:03:00,
2013-08-01 22:08:00,71.8,65.3,29.86,WSW,242,2.0,3.0,80,0.00,,,0.00,VWS V12.08,2013-08-02 03:08:00,
2013-08-01 22:13:00,71.5,65.4,29.86,WSW,248,0.0,4.0,81,0.00,,,0.00,VWS V12.08,2013-08-02 03:13:00,
2013-08-01 22:18:00,71.3,65.2,29.86,WSW,246,0.0,4.0,81,0.00,,,0.00,VWS V12.08,2013-08-02 03:18:00,
2013-08-01 22:23:00,71.1,65.3,29.86,NW,322,0.0,4.0,82,0.00,,,0.00,VWS V12.08,2013-08-02 03:23:00,
2013-08-01 22:28:00,71.0,65.2,29.87,NW,311,0.0,4.0,82,0.00,,,0.00,VWS V12.08,2013-08-02 03:28:00,
2013-08-01 22:34:00,71.0,65.2,29.87,NNW,330,2.0,3.0,82,0.00,,,0.00,VWS V12.08,2013-08-02 03:34:00,
2013-08-01 22:38:00,71.0,64.9,29.86,NW,325,2.0,3.0,81,0.00,,,0.00,VWS V12.08,2013-08-02 03:38:00,
2013-08-01 22:44:00,71.1,64.6,29.86,North,360,3.0,4.0,80,0.00,,,0.00,VWS V12.08,2013-08-02 03:44:00,
2013-08-01 22:49:00,71.1,64.6,29.86,NNE,31,3.0,5.0,80,0.00,,,0.00,VWS V12.08,2013-08-02 03:49:00,
2013-08-01 22:54:00,71.0,64.5,29.86,NNE,16,4.0,6.0,80,0.00,,,0.00,VWS V12.08,2013-08-02 03:54:00,
2013-08-01 22:59:00,70.8,64.3,29.86,NE,53,4.0,6.0,80,0.00,,,0.00,VWS V12.08,2013-08-02 03:59:00,
2013-08-01 23:01:00,70.7,64.2,29.86,NE,46,2.0,6.0,80,0.00,,,0.00,VWS V12.08,2013-08-02 04:01:00,
2013-08-01 23:06:00,70.4,63.9,29.87,ENE,57,4.0,7.0,80,0.00,,,0.00,VWS V12.08,2013-08-02 04:06:00,
2013-08-01 23:11:00,70.1,63.7,29.87,NE,40,3.0,7.0,80,0.00,,,0.00,VWS V12.08,2013-08-02 04:11:00,
2013-08-01 23:15:00,69.9,63.5,29.86,NE,49,2.0,7.0,80,0.00,,,0.00,VWS V12.08,2013-08-02 04:15:00,
2013-08-01 23:16:00,69.8,63.4,29.86,NE,45,4.0,7.0,80,0.00,,,0.00,VWS V12.08,2013-08-02 04:16:00,
2013-08-01 23:21:00,69.6,63.5,29.86,ENE,66,1.0,7.0,81,0.00,,,0.00,VWS V12.08,2013-08-02 04:21:00,
2013-08-01 23:26:00,69.5,63.4,29.86,NE,47,1.0,7.0,81,0.00,,,0.00,VWS V12.08,2013-08-02 04:26:00,
2013-08-01 23:31:00,69.4,63.3,29.85,NE,50,2.0,3.0,81,0.00,,,0.00,VWS V12.08,2013-08-02 04:31:00,
2013-08-01 23:36:00,69.2,63.1,29.85,NE,54,3.0,6.0,81,0.00,,,0.00,VWS V12.08,2013-08-02 04:36:00,
2013-08-01 23:42:00,68.7,63.0,29.85,NNE,30,2.0,6.0,82,0.00,,,0.00,VWS V12.08,2013-08-02 04:42:00,
2013-08-01 23:47:00,68.5,63.1,29.85,ENE,63,2.0,6.0,83,0.00,,,0.00,VWS V12.08,2013-08-02 04:47:00,
2013-08-01 23:52:00,68.4,62.7,29.85,NE,54,2.0,6.0,82,0.00,,,0.00,VWS V12.08,2013-08-02 04:52:00,
2013-08-01 23:57:00,68.3,62.2,29.85,ENE,57,0.0,6.0,81,0.00,,,0.00,VWS V12.08,2013-08-02 04:57:00,